sensor_id;sensor_type;location;lat;lon;timestamp;temperature;humidity
41756;DHT22;27435;48.480;9.258;2022-12-19T00:01:38;-1.50;99.00
41756;DHT22;27435;48.480;9.258;2022-12-19T00:04:06;-1.50;99.00
41756;DHT22;27435;48.480;9.258;2022-12-19T00:06:32;-1.70;99.00
41756;DHT22;27435;48.480;9.258;2022-12-19T00:08:58;-1.70;99.00
41756;DHT22;27435;48.480;9.258;2022-12-19T00:11:26;-1.60;99.00
41756;DHT22;27435;48.480;9.258;2022-12-19T00:13:52;-1.40;99.00
41756;DHT22;27435;48.480;9.258;2022-12-19T00:16:23;-1.30;99.00
41756;DHT22;27435;48.480;9.258;2022-12-19T00:18:50;-1.10;99.00
41756;DHT22;27435;48.480;9.258;2022-12-19T00:21:18;-1.00;99.00
41756;DHT22;27435;48.480;9.258;2022-12-19T00:23:44;-1.10;99.00
41756;DHT22;27435;48.480;9.258;2022-12-19T00:26:12;-1.10;99.00
41756;DHT22;27435;48.480;9.258;2022-12-19T00:28:38;-1.10;99.00
41756;DHT22;27435;48.480;9.258;2022-12-19T00:31:04;-1.00;99.00
41756;DHT22;27435;48.480;9.258;2022-12-19T00:33:30;-0.90;99.00
41756;DHT22;27435;48.480;9.258;2022-12-19T00:36:05;-0.90;99.00
41756;DHT22;27435;48.480;9.258;2022-12-19T00:38:32;-1.00;99.00
41756;DHT22;27435;48.480;9.258;2022-12-19T00:41:08;-0.90;99.00
41756;DHT22;27435;48.480;9.258;2022-12-19T00:43:34;-0.90;99.00
41756;DHT22;27435;48.480;9.258;2022-12-19T00:46:04;-1.00;99.00
41756;DHT22;27435;48.480;9.258;2022-12-19T00:48:30;-1.00;99.00
41756;DHT22;27435;48.480;9.258;2022-12-19T00:51:10;-1.00;99.00
41756;DHT22;27435;48.480;9.258;2022-12-19T00:53:37;-0.90;99.00
41756;DHT22;27435;48.480;9.258;2022-12-19T00:56:04;-1.00;99.00
41756;DHT22;27435;48.480;9.258;2022-12-19T00:58:30;-1.00;99.00
41756;DHT22;27435;48.480;9.258;2022-12-19T01:00:56;-0.90;99.00
41756;DHT22;27435;48.480;9.258;2022-12-19T01:03:22;-0.90;99.00
41756;DHT22;27435;48.480;9.258;2022-12-19T01:05:52;-0.80;99.00
41756;DHT22;27435;48.480;9.258;2022-12-19T01:08:18;-0.90;99.00
41756;DHT22;27435;48.480;9.258;2022-12-19T01:10:48;-1.00;99.00
41756;DHT22;27435;48.480;9.258;2022-12-19T01:13:15;-1.20;99.00
41756;DHT22;27435;48.480;9.258;2022-12-19T01:15:41;-0.90;99.00
41756;DHT22;27435;48.480;9.258;2022-12-19T01:18:08;-0.70;99.00
41756;DHT22;27435;48.480;9.258;2022-12-19T01:20:40;-0.80;99.00
41756;DHT22;27435;48.480;9.258;2022-12-19T01:23:08;-0.80;99.00
41756;DHT22;27435;48.480;9.258;2022-12-19T01:25:35;-0.80;99.00
41756;DHT22;27435;48.480;9.258;2022-12-19T01:28:02;-0.80;99.00
41756;DHT22;27435;48.480;9.258;2022-12-19T01:30:28;-0.80;99.00
41756;DHT22;27435;48.480;9.258;2022-12-19T01:32:55;-0.90;99.00
41756;DHT22;27435;48.480;9.258;2022-12-19T01:35:21;-0.80;99.00
41756;DHT22;27435;48.480;9.258;2022-12-19T01:37:48;-0.80;99.00
41756;DHT22;27435;48.480;9.258;2022-12-19T01:40:13;-0.70;99.00
41756;DHT22;27435;48.480;9.258;2022-12-19T01:42:39;-0.70;99.00
41756;DHT22;27435;48.480;9.258;2022-12-19T01:50:12;-0.80;99.00
41756;DHT22;27435;48.480;9.258;2022-12-19T01:52:39;-0.70;99.00
41756;DHT22;27435;48.480;9.258;2022-12-19T01:55:05;-0.60;99.00
41756;DHT22;27435;48.480;9.258;2022-12-19T01:57:31;-0.60;99.00
41756;DHT22;27435;48.480;9.258;2022-12-19T01:59:58;-0.50;99.00
41756;DHT22;27435;48.480;9.258;2022-12-19T02:02:39;-0.40;99.00
41756;DHT22;27435;48.480;9.258;2022-12-19T02:05:08;-0.20;99.00
41756;DHT22;27435;48.480;9.258;2022-12-19T02:07:34;-0.20;99.00
41756;DHT22;27435;48.480;9.258;2022-12-19T02:10:01;-0.20;99.00
41756;DHT22;27435;48.480;9.258;2022-12-19T02:12:30;-0.10;99.00
41756;DHT22;27435;48.480;9.258;2022-12-19T02:14:59;0.00;99.00
41756;DHT22;27435;48.480;9.258;2022-12-19T02:17:54;-0.10;99.00
41756;DHT22;27435;48.480;9.258;2022-12-19T02:28:15;0.10;99.00
41756;DHT22;27435;48.480;9.258;2022-12-19T02:33:53;0.10;99.00
41756;DHT22;27435;48.480;9.258;2022-12-19T02:36:35;0.30;99.00
41756;DHT22;27435;48.480;9.258;2022-12-19T02:39:07;0.30;99.00
41756;DHT22;27435;48.480;9.258;2022-12-19T02:41:46;0.30;99.00
41756;DHT22;27435;48.480;9.258;2022-12-19T02:44:30;0.50;99.00
41756;DHT22;27435;48.480;9.258;2022-12-19T02:46:58;0.40;99.00
41756;DHT22;27435;48.480;9.258;2022-12-19T02:49:24;0.30;99.00
41756;DHT22;27435;48.480;9.258;2022-12-19T02:51:52;0.30;99.00
41756;DHT22;27435;48.480;9.258;2022-12-19T02:54:18;0.50;99.00
41756;DHT22;27435;48.480;9.258;2022-12-19T03:02:18;0.70;99.00
41756;DHT22;27435;48.480;9.258;2022-12-19T03:05:13;0.70;99.00
41756;DHT22;27435;48.480;9.258;2022-12-19T03:07:51;0.90;99.00
41756;DHT22;27435;48.480;9.258;2022-12-19T03:13:07;0.90;99.00
41756;DHT22;27435;48.480;9.258;2022-12-19T03:15:34;0.80;99.00
41756;DHT22;27435;48.480;9.258;2022-12-19T03:18:01;0.80;99.00
41756;DHT22;27435;48.480;9.258;2022-12-19T03:20:43;0.80;99.00
41756;DHT22;27435;48.480;9.258;2022-12-19T03:23:11;0.90;99.00
41756;DHT22;27435;48.480;9.258;2022-12-19T03:25:37;1.00;99.00
41756;DHT22;27435;48.480;9.258;2022-12-19T03:28:10;1.20;99.00
41756;DHT22;27435;48.480;9.258;2022-12-19T03:30:38;1.30;99.00
41756;DHT22;27435;48.480;9.258;2022-12-19T03:33:07;1.30;99.00
41756;DHT22;27435;48.480;9.258;2022-12-19T03:35:34;1.20;99.00
41756;DHT22;27435;48.480;9.258;2022-12-19T03:38:03;1.20;99.00
41756;DHT22;27435;48.480;9.258;2022-12-19T03:40:32;1.30;99.00
41756;DHT22;27435;48.480;9.258;2022-12-19T03:43:04;1.30;99.00
41756;DHT22;27435;48.480;9.258;2022-12-19T03:46:00;1.40;99.00
41756;DHT22;27435;48.480;9.258;2022-12-19T03:59:00;1.20;99.00
41756;DHT22;27435;48.480;9.258;2022-12-19T04:01:27;1.10;99.00
41756;DHT22;27435;48.480;9.258;2022-12-19T04:03:54;1.10;99.00
41756;DHT22;27435;48.480;9.258;2022-12-19T04:06:21;1.10;99.00
41756;DHT22;27435;48.480;9.258;2022-12-19T04:08:47;0.90;99.00
41756;DHT22;27435;48.480;9.258;2022-12-19T04:11:18;0.70;99.00
41756;DHT22;27435;48.480;9.258;2022-12-19T04:13:59;0.60;99.00
41756;DHT22;27435;48.480;9.258;2022-12-19T04:16:30;0.70;99.00
41756;DHT22;27435;48.480;9.258;2022-12-19T04:19:08;0.70;99.00
41756;DHT22;27435;48.480;9.258;2022-12-19T04:21:42;0.70;99.00
41756;DHT22;27435;48.480;9.258;2022-12-19T04:24:14;0.70;99.00
41756;DHT22;27435;48.480;9.258;2022-12-19T04:26:43;0.90;99.00
41756;DHT22;27435;48.480;9.258;2022-12-19T04:29:11;1.20;99.00
41756;DHT22;27435;48.480;9.258;2022-12-19T04:31:38;1.40;99.00
41756;DHT22;27435;48.480;9.258;2022-12-19T04:34:04;1.50;99.00
41756;DHT22;27435;48.480;9.258;2022-12-19T04:36:29;1.60;99.00
41756;DHT22;27435;48.480;9.258;2022-12-19T04:38:56;1.70;99.00
41756;DHT22;27435;48.480;9.258;2022-12-19T04:41:21;1.80;99.00
41756;DHT22;27435;48.480;9.258;2022-12-19T04:43:47;1.80;99.00
41756;DHT22;27435;48.480;9.258;2022-12-19T04:46:13;1.80;99.00
41756;DHT22;27435;48.480;9.258;2022-12-19T04:48:38;1.90;99.00
41756;DHT22;27435;48.480;9.258;2022-12-19T04:51:04;2.00;99.00
41756;DHT22;27435;48.480;9.258;2022-12-19T04:53:30;2.00;99.00
41756;DHT22;27435;48.480;9.258;2022-12-19T04:56:04;2.10;99.00
41756;DHT22;27435;48.480;9.258;2022-12-19T04:58:30;2.10;99.00
41756;DHT22;27435;48.480;9.258;2022-12-19T05:01:00;2.20;99.00
41756;DHT22;27435;48.480;9.258;2022-12-19T05:03:26;2.20;99.00
41756;DHT22;27435;48.480;9.258;2022-12-19T05:05:52;2.10;99.00
41756;DHT22;27435;48.480;9.258;2022-12-19T05:08:17;2.20;99.00
41756;DHT22;27435;48.480;9.258;2022-12-19T05:10:43;2.20;99.00
41756;DHT22;27435;48.480;9.258;2022-12-19T05:13:09;2.20;99.00
41756;DHT22;27435;48.480;9.258;2022-12-19T05:15:34;2.40;99.00
41756;DHT22;27435;48.480;9.258;2022-12-19T05:18:00;2.40;99.00
41756;DHT22;27435;48.480;9.258;2022-12-19T05:20:25;2.40;99.00
41756;DHT22;27435;48.480;9.258;2022-12-19T05:22:51;2.50;99.00
41756;DHT22;27435;48.480;9.258;2022-12-19T05:25:16;2.60;99.00
41756;DHT22;27435;48.480;9.258;2022-12-19T05:27:42;2.70;99.00
41756;DHT22;27435;48.480;9.258;2022-12-19T05:30:08;2.50;99.00
41756;DHT22;27435;48.480;9.258;2022-12-19T05:32:34;2.50;99.00
41756;DHT22;27435;48.480;9.258;2022-12-19T05:34:59;2.50;99.00
41756;DHT22;27435;48.480;9.258;2022-12-19T05:37:25;2.50;99.00
41756;DHT22;27435;48.480;9.258;2022-12-19T05:39:51;2.60;99.00
41756;DHT22;27435;48.480;9.258;2022-12-19T05:42:16;2.60;99.00
41756;DHT22;27435;48.480;9.258;2022-12-19T05:44:42;2.60;99.00
41756;DHT22;27435;48.480;9.258;2022-12-19T05:47:07;2.60;99.00
41756;DHT22;27435;48.480;9.258;2022-12-19T05:49:33;2.60;99.00
41756;DHT22;27435;48.480;9.258;2022-12-19T05:51:59;2.70;99.00
41756;DHT22;27435;48.480;9.258;2022-12-19T05:54:24;2.60;99.00
41756;DHT22;27435;48.480;9.258;2022-12-19T05:56:50;2.60;99.00
41756;DHT22;27435;48.480;9.258;2022-12-19T05:59:15;2.70;99.00
41756;DHT22;27435;48.480;9.258;2022-12-19T06:01:44;2.80;99.00
41756;DHT22;27435;48.480;9.258;2022-12-19T06:04:09;2.90;99.00
41756;DHT22;27435;48.480;9.258;2022-12-19T06:06:35;2.90;99.00
41756;DHT22;27435;48.480;9.258;2022-12-19T06:09:02;2.90;99.00
41756;DHT22;27435;48.480;9.258;2022-12-19T06:11:27;2.90;99.00
41756;DHT22;27435;48.480;9.258;2022-12-19T06:13:53;3.00;99.00
41756;DHT22;27435;48.480;9.258;2022-12-19T06:16:20;3.00;99.00
41756;DHT22;27435;48.480;9.258;2022-12-19T06:18:46;3.00;99.00
41756;DHT22;27435;48.480;9.258;2022-12-19T06:21:17;3.00;99.00
41756;DHT22;27435;48.480;9.258;2022-12-19T06:23:44;3.10;99.00
41756;DHT22;27435;48.480;9.258;2022-12-19T06:26:12;3.10;99.00
41756;DHT22;27435;48.480;9.258;2022-12-19T06:28:37;3.20;99.00
41756;DHT22;27435;48.480;9.258;2022-12-19T06:31:04;3.10;99.00
41756;DHT22;27435;48.480;9.258;2022-12-19T06:33:31;3.10;99.00
41756;DHT22;27435;48.480;9.258;2022-12-19T06:36:09;3.10;99.00
41756;DHT22;27435;48.480;9.258;2022-12-19T06:38:35;3.10;99.00
41756;DHT22;27435;48.480;9.258;2022-12-19T06:41:04;3.20;99.00
41756;DHT22;27435;48.480;9.258;2022-12-19T06:43:49;3.30;99.00
41756;DHT22;27435;48.480;9.258;2022-12-19T06:46:15;3.40;99.00
41756;DHT22;27435;48.480;9.258;2022-12-19T06:48:40;3.40;99.00
41756;DHT22;27435;48.480;9.258;2022-12-19T06:51:06;3.50;99.00
41756;DHT22;27435;48.480;9.258;2022-12-19T06:53:32;3.50;99.00
41756;DHT22;27435;48.480;9.258;2022-12-19T06:55:58;3.60;99.00
41756;DHT22;27435;48.480;9.258;2022-12-19T06:58:25;3.60;99.00
41756;DHT22;27435;48.480;9.258;2022-12-19T07:00:51;3.70;99.00
41756;DHT22;27435;48.480;9.258;2022-12-19T07:03:20;3.70;99.00
41756;DHT22;27435;48.480;9.258;2022-12-19T07:05:47;3.70;99.00
41756;DHT22;27435;48.480;9.258;2022-12-19T07:08:13;3.70;99.00
41756;DHT22;27435;48.480;9.258;2022-12-19T07:10:38;3.80;99.00
41756;DHT22;27435;48.480;9.258;2022-12-19T07:13:04;3.80;99.00
41756;DHT22;27435;48.480;9.258;2022-12-19T07:15:31;3.80;99.00
41756;DHT22;27435;48.480;9.258;2022-12-19T07:17:59;3.80;99.00
41756;DHT22;27435;48.480;9.258;2022-12-19T07:20:25;3.80;99.00
41756;DHT22;27435;48.480;9.258;2022-12-19T07:22:52;3.80;99.00
41756;DHT22;27435;48.480;9.258;2022-12-19T07:25:17;3.80;99.00
41756;DHT22;27435;48.480;9.258;2022-12-19T07:27:43;3.80;99.00
41756;DHT22;27435;48.480;9.258;2022-12-19T07:30:10;3.80;99.00
41756;DHT22;27435;48.480;9.258;2022-12-19T07:32:36;3.90;99.00
41756;DHT22;27435;48.480;9.258;2022-12-19T07:35:01;3.90;99.00
41756;DHT22;27435;48.480;9.258;2022-12-19T07:37:28;4.10;99.00
41756;DHT22;27435;48.480;9.258;2022-12-19T07:39:54;4.10;99.00
41756;DHT22;27435;48.480;9.258;2022-12-19T07:42:19;3.80;99.00
41756;DHT22;27435;48.480;9.258;2022-12-19T07:44:45;3.70;99.00
41756;DHT22;27435;48.480;9.258;2022-12-19T07:47:11;3.70;99.00
41756;DHT22;27435;48.480;9.258;2022-12-19T07:49:36;3.80;99.00
41756;DHT22;27435;48.480;9.258;2022-12-19T07:52:02;3.90;99.00
41756;DHT22;27435;48.480;9.258;2022-12-19T07:54:28;3.80;99.00
41756;DHT22;27435;48.480;9.258;2022-12-19T07:56:53;3.90;99.00
41756;DHT22;27435;48.480;9.258;2022-12-19T07:59:19;4.00;99.00
41756;DHT22;27435;48.480;9.258;2022-12-19T08:01:44;4.10;99.00
41756;DHT22;27435;48.480;9.258;2022-12-19T08:04:10;4.30;99.00
41756;DHT22;27435;48.480;9.258;2022-12-19T08:06:36;4.30;99.00
41756;DHT22;27435;48.480;9.258;2022-12-19T08:09:02;4.40;99.00
41756;DHT22;27435;48.480;9.258;2022-12-19T08:11:27;4.40;99.00
41756;DHT22;27435;48.480;9.258;2022-12-19T08:13:55;4.60;99.00
41756;DHT22;27435;48.480;9.258;2022-12-19T08:16:22;4.50;99.00
41756;DHT22;27435;48.480;9.258;2022-12-19T08:18:48;4.70;99.00
41756;DHT22;27435;48.480;9.258;2022-12-19T08:21:20;4.80;99.00
41756;DHT22;27435;48.480;9.258;2022-12-19T08:23:46;4.80;99.00
41756;DHT22;27435;48.480;9.258;2022-12-19T08:26:15;4.90;99.00
41756;DHT22;27435;48.480;9.258;2022-12-19T08:28:41;4.90;99.00
41756;DHT22;27435;48.480;9.258;2022-12-19T08:31:09;4.80;99.00
41756;DHT22;27435;48.480;9.258;2022-12-19T08:33:34;4.70;99.00
41756;DHT22;27435;48.480;9.258;2022-12-19T08:36:05;4.40;99.00
41756;DHT22;27435;48.480;9.258;2022-12-19T08:38:31;4.30;99.00
41756;DHT22;27435;48.480;9.258;2022-12-19T08:40:57;4.20;99.00
41756;DHT22;27435;48.480;9.258;2022-12-19T08:43:23;4.20;99.00
41756;DHT22;27435;48.480;9.258;2022-12-19T08:45:49;4.20;99.00
41756;DHT22;27435;48.480;9.258;2022-12-19T08:48:15;4.20;99.00
41756;DHT22;27435;48.480;9.258;2022-12-19T08:51:09;4.30;99.00
41756;DHT22;27435;48.480;9.258;2022-12-19T08:53:37;4.40;99.00
41756;DHT22;27435;48.480;9.258;2022-12-19T08:56:09;4.60;99.00
41756;DHT22;27435;48.480;9.258;2022-12-19T08:58:35;4.40;99.00
41756;DHT22;27435;48.480;9.258;2022-12-19T09:01:03;4.40;99.00
41756;DHT22;27435;48.480;9.258;2022-12-19T09:03:30;4.30;99.00
41756;DHT22;27435;48.480;9.258;2022-12-19T09:05:57;4.10;99.00
41756;DHT22;27435;48.480;9.258;2022-12-19T09:08:23;4.20;99.00
41756;DHT22;27435;48.480;9.258;2022-12-19T09:10:49;4.20;99.00
41756;DHT22;27435;48.480;9.258;2022-12-19T09:13:14;4.20;99.00
41756;DHT22;27435;48.480;9.258;2022-12-19T09:15:40;4.30;99.00
41756;DHT22;27435;48.480;9.258;2022-12-19T09:18:06;4.40;99.00
41756;DHT22;27435;48.480;9.258;2022-12-19T09:20:31;4.20;99.00
41756;DHT22;27435;48.480;9.258;2022-12-19T09:22:57;4.30;99.00
41756;DHT22;27435;48.480;9.258;2022-12-19T09:25:23;4.20;99.00
41756;DHT22;27435;48.480;9.258;2022-12-19T09:27:48;4.30;99.00
41756;DHT22;27435;48.480;9.258;2022-12-19T09:30:14;4.50;99.00
41756;DHT22;27435;48.480;9.258;2022-12-19T09:32:40;4.60;99.00
41756;DHT22;27435;48.480;9.258;2022-12-19T09:35:06;4.70;99.00
41756;DHT22;27435;48.480;9.258;2022-12-19T09:37:32;4.70;99.00
41756;DHT22;27435;48.480;9.258;2022-12-19T09:39:58;4.30;99.00
41756;DHT22;27435;48.480;9.258;2022-12-19T09:47:43;4.50;99.00
41756;DHT22;27435;48.480;9.258;2022-12-19T09:53:10;5.10;99.00
41756;DHT22;27435;48.480;9.258;2022-12-19T09:55:40;5.40;99.00
41756;DHT22;27435;48.480;9.258;2022-12-19T09:58:21;5.70;99.00
41756;DHT22;27435;48.480;9.258;2022-12-19T10:00:54;5.90;99.00
41756;DHT22;27435;48.480;9.258;2022-12-19T10:03:28;6.00;99.00
41756;DHT22;27435;48.480;9.258;2022-12-19T10:06:06;6.10;99.00
41756;DHT22;27435;48.480;9.258;2022-12-19T10:20:45;5.90;99.00
41756;DHT22;27435;48.480;9.258;2022-12-19T10:25:50;6.40;99.00
41756;DHT22;27435;48.480;9.258;2022-12-19T10:36:39;6.60;99.00
41756;DHT22;27435;48.480;9.258;2022-12-19T10:39:26;6.50;99.00
41756;DHT22;27435;48.480;9.258;2022-12-19T10:41:56;6.40;99.00
41756;DHT22;27435;48.480;9.258;2022-12-19T10:44:27;6.40;99.00
41756;DHT22;27435;48.480;9.258;2022-12-19T10:46:54;6.50;99.00
41756;DHT22;27435;48.480;9.258;2022-12-19T10:49:26;6.60;99.00
41756;DHT22;27435;48.480;9.258;2022-12-19T10:54:22;6.80;99.00
41756;DHT22;27435;48.480;9.258;2022-12-19T10:56:48;6.90;98.10
41756;DHT22;27435;48.480;9.258;2022-12-19T10:59:19;6.90;98.40
41756;DHT22;27435;48.480;9.258;2022-12-19T11:01:46;7.00;98.80
41756;DHT22;27435;48.480;9.258;2022-12-19T11:04:32;7.20;97.60
41756;DHT22;27435;48.480;9.258;2022-12-19T11:07:17;7.30;97.20
41756;DHT22;27435;48.480;9.258;2022-12-19T11:09:43;7.40;96.70
41756;DHT22;27435;48.480;9.258;2022-12-19T11:14:38;7.50;96.60
41756;DHT22;27435;48.480;9.258;2022-12-19T11:17:04;7.40;96.40
41756;DHT22;27435;48.480;9.258;2022-12-19T11:19:36;7.10;97.70
41756;DHT22;27435;48.480;9.258;2022-12-19T11:22:21;7.10;98.60
41756;DHT22;27435;48.480;9.258;2022-12-19T11:24:52;7.20;98.30
41756;DHT22;27435;48.480;9.258;2022-12-19T11:29:59;7.40;97.90
41756;DHT22;27435;48.480;9.258;2022-12-19T11:32:38;7.40;98.50
41756;DHT22;27435;48.480;9.258;2022-12-19T11:40:32;7.40;99.00
41756;DHT22;27435;48.480;9.258;2022-12-19T11:43:28;7.50;99.00
41756;DHT22;27435;48.480;9.258;2022-12-19T11:48:55;8.00;97.20
41756;DHT22;27435;48.480;9.258;2022-12-19T11:54:25;8.40;96.20
41756;DHT22;27435;48.480;9.258;2022-12-19T11:56:53;8.60;94.90
41756;DHT22;27435;48.480;9.258;2022-12-19T11:59:40;8.50;94.60
41756;DHT22;27435;48.480;9.258;2022-12-19T12:05:24;8.80;94.10
41756;DHT22;27435;48.480;9.258;2022-12-19T12:14:05;8.50;94.40
41756;DHT22;27435;48.480;9.258;2022-12-19T12:16:39;8.70;93.70
41756;DHT22;27435;48.480;9.258;2022-12-19T12:24:49;8.50;94.20
41756;DHT22;27435;48.480;9.258;2022-12-19T12:27:49;8.50;94.10
41756;DHT22;27435;48.480;9.258;2022-12-19T12:30:21;8.20;95.70
41756;DHT22;27435;48.480;9.258;2022-12-19T12:35:39;7.90;97.20
41756;DHT22;27435;48.480;9.258;2022-12-19T12:41:22;7.30;99.00
41756;DHT22;27435;48.480;9.258;2022-12-19T12:44:12;7.40;99.00
41756;DHT22;27435;48.480;9.258;2022-12-19T12:46:49;7.60;99.00
41756;DHT22;27435;48.480;9.258;2022-12-19T12:49:43;7.80;98.80
41756;DHT22;27435;48.480;9.258;2022-12-19T12:52:31;7.90;97.50
41756;DHT22;27435;48.480;9.258;2022-12-19T12:54:58;8.10;95.70
41756;DHT22;27435;48.480;9.258;2022-12-19T13:02:41;8.40;94.50
41756;DHT22;27435;48.480;9.258;2022-12-19T13:05:23;8.40;94.70
41756;DHT22;27435;48.480;9.258;2022-12-19T13:07:52;8.30;93.50
41756;DHT22;27435;48.480;9.258;2022-12-19T13:10:26;8.40;93.00
41756;DHT22;27435;48.480;9.258;2022-12-19T13:13:06;8.40;93.50
41756;DHT22;27435;48.480;9.258;2022-12-19T13:15:34;8.50;93.70
41756;DHT22;27435;48.480;9.258;2022-12-19T13:20:44;8.30;92.90
41756;DHT22;27435;48.480;9.258;2022-12-19T13:26:03;8.30;93.90
41756;DHT22;27435;48.480;9.258;2022-12-19T13:42:15;7.60;96.40
41756;DHT22;27435;48.480;9.258;2022-12-19T13:45:27;7.60;96.70
41756;DHT22;27435;48.480;9.258;2022-12-19T13:47:58;7.50;96.60
41756;DHT22;27435;48.480;9.258;2022-12-19T13:52:56;7.50;96.70
41756;DHT22;27435;48.480;9.258;2022-12-19T13:55:21;7.50;96.70
41756;DHT22;27435;48.480;9.258;2022-12-19T13:57:56;7.40;96.80
41756;DHT22;27435;48.480;9.258;2022-12-19T14:00:40;7.40;96.30
41756;DHT22;27435;48.480;9.258;2022-12-19T14:03:14;7.50;96.10
41756;DHT22;27435;48.480;9.258;2022-12-19T14:05:43;7.40;96.10
41756;DHT22;27435;48.480;9.258;2022-12-19T14:08:20;7.40;95.70
41756;DHT22;27435;48.480;9.258;2022-12-19T14:10:48;7.40;95.90
41756;DHT22;27435;48.480;9.258;2022-12-19T14:13:20;7.20;96.90
41756;DHT22;27435;48.480;9.258;2022-12-19T14:16:05;7.20;97.20
41756;DHT22;27435;48.480;9.258;2022-12-19T14:18:32;7.20;97.20
41756;DHT22;27435;48.480;9.258;2022-12-19T14:21:23;7.20;97.60
41756;DHT22;27435;48.480;9.258;2022-12-19T14:24:09;7.00;99.00
41756;DHT22;27435;48.480;9.258;2022-12-19T14:26:35;6.90;99.00
41756;DHT22;27435;48.480;9.258;2022-12-19T14:29:13;6.90;97.70
41756;DHT22;27435;48.480;9.258;2022-12-19T14:31:41;7.00;97.60
41756;DHT22;27435;48.480;9.258;2022-12-19T14:34:16;7.00;98.30
41756;DHT22;27435;48.480;9.258;2022-12-19T14:37:02;7.00;97.50
41756;DHT22;27435;48.480;9.258;2022-12-19T14:39:33;7.00;97.60
41756;DHT22;27435;48.480;9.258;2022-12-19T14:42:05;7.00;98.00
41756;DHT22;27435;48.480;9.258;2022-12-19T14:44:51;6.70;99.00
41756;DHT22;27435;48.480;9.258;2022-12-19T14:47:43;6.40;99.00
41756;DHT22;27435;48.480;9.258;2022-12-19T14:50:27;6.10;99.00
41756;DHT22;27435;48.480;9.258;2022-12-19T14:53:31;6.10;99.00
41756;DHT22;27435;48.480;9.258;2022-12-19T14:56:05;6.10;99.00
41756;DHT22;27435;48.480;9.258;2022-12-19T14:58:34;6.00;99.00
41756;DHT22;27435;48.480;9.258;2022-12-19T15:01:01;5.90;99.00
41756;DHT22;27435;48.480;9.258;2022-12-19T15:03:30;5.70;99.00
41756;DHT22;27435;48.480;9.258;2022-12-19T15:06:11;5.60;99.00
41756;DHT22;27435;48.480;9.258;2022-12-19T15:08:38;5.30;99.00
41756;DHT22;27435;48.480;9.258;2022-12-19T15:11:05;5.10;99.00
41756;DHT22;27435;48.480;9.258;2022-12-19T15:13:55;4.80;99.00
41756;DHT22;27435;48.480;9.258;2022-12-19T15:16:27;4.50;99.00
41756;DHT22;27435;48.480;9.258;2022-12-19T15:18:58;4.30;99.00
41756;DHT22;27435;48.480;9.258;2022-12-19T15:21:25;4.30;99.00
41756;DHT22;27435;48.480;9.258;2022-12-19T15:23:51;4.20;99.00
41756;DHT22;27435;48.480;9.258;2022-12-19T15:28:54;4.00;99.00
41756;DHT22;27435;48.480;9.258;2022-12-19T15:31:34;4.00;99.00
41756;DHT22;27435;48.480;9.258;2022-12-19T15:34:11;3.90;99.00
41756;DHT22;27435;48.480;9.258;2022-12-19T15:36:44;4.00;99.00
41756;DHT22;27435;48.480;9.258;2022-12-19T15:39:09;3.90;99.00
41756;DHT22;27435;48.480;9.258;2022-12-19T15:41:35;3.80;99.00
41756;DHT22;27435;48.480;9.258;2022-12-19T15:44:12;3.70;99.00
41756;DHT22;27435;48.480;9.258;2022-12-19T15:46:40;3.50;99.00
41756;DHT22;27435;48.480;9.258;2022-12-19T15:49:13;3.70;99.00
41756;DHT22;27435;48.480;9.258;2022-12-19T15:51:39;3.80;99.00
41756;DHT22;27435;48.480;9.258;2022-12-19T15:54:05;3.70;99.00
41756;DHT22;27435;48.480;9.258;2022-12-19T15:56:34;3.60;99.00
41756;DHT22;27435;48.480;9.258;2022-12-19T15:59:02;3.60;99.00
41756;DHT22;27435;48.480;9.258;2022-12-19T16:01:28;3.70;99.00
41756;DHT22;27435;48.480;9.258;2022-12-19T16:03:58;3.90;99.00
41756;DHT22;27435;48.480;9.258;2022-12-19T16:06:24;3.90;99.00
41756;DHT22;27435;48.480;9.258;2022-12-19T16:08:50;4.00;99.00
41756;DHT22;27435;48.480;9.258;2022-12-19T16:11:23;3.90;99.00
41756;DHT22;27435;48.480;9.258;2022-12-19T16:13:55;4.00;99.00
41756;DHT22;27435;48.480;9.258;2022-12-19T16:16:21;4.00;99.00
41756;DHT22;27435;48.480;9.258;2022-12-19T16:18:47;4.10;99.00
41756;DHT22;27435;48.480;9.258;2022-12-19T16:21:22;4.10;99.00
41756;DHT22;27435;48.480;9.258;2022-12-19T16:23:49;4.20;99.00
41756;DHT22;27435;48.480;9.258;2022-12-19T16:28:47;4.30;99.00
41756;DHT22;27435;48.480;9.258;2022-12-19T16:31:18;4.30;99.00
41756;DHT22;27435;48.480;9.258;2022-12-19T16:33:44;4.30;99.00
41756;DHT22;27435;48.480;9.258;2022-12-19T16:36:10;4.30;99.00
41756;DHT22;27435;48.480;9.258;2022-12-19T16:38:35;4.20;99.00
41756;DHT22;27435;48.480;9.258;2022-12-19T16:41:01;4.20;99.00
41756;DHT22;27435;48.480;9.258;2022-12-19T16:43:33;4.20;99.00
41756;DHT22;27435;48.480;9.258;2022-12-19T16:46:00;4.10;99.00
41756;DHT22;27435;48.480;9.258;2022-12-19T16:48:28;4.20;99.00
41756;DHT22;27435;48.480;9.258;2022-12-19T16:50:57;4.20;99.00
41756;DHT22;27435;48.480;9.258;2022-12-19T16:53:23;4.30;99.00
41756;DHT22;27435;48.480;9.258;2022-12-19T16:55:49;4.30;99.00
41756;DHT22;27435;48.480;9.258;2022-12-19T16:58:22;4.50;99.00
41756;DHT22;27435;48.480;9.258;2022-12-19T17:00:49;4.60;99.00
41756;DHT22;27435;48.480;9.258;2022-12-19T17:05:50;4.60;99.00
41756;DHT22;27435;48.480;9.258;2022-12-19T17:08:16;4.60;99.00
41756;DHT22;27435;48.480;9.258;2022-12-19T17:10:43;4.40;99.00
41756;DHT22;27435;48.480;9.258;2022-12-19T17:13:12;4.40;99.00
41756;DHT22;27435;48.480;9.258;2022-12-19T17:15:38;4.40;99.00
41756;DHT22;27435;48.480;9.258;2022-12-19T17:18:11;4.50;99.00
41756;DHT22;27435;48.480;9.258;2022-12-19T17:20:42;4.60;99.00
41756;DHT22;27435;48.480;9.258;2022-12-19T17:23:19;4.70;99.00
41756;DHT22;27435;48.480;9.258;2022-12-19T17:25:45;4.80;99.00
41756;DHT22;27435;48.480;9.258;2022-12-19T17:28:11;4.90;99.00
41756;DHT22;27435;48.480;9.258;2022-12-19T17:30:37;5.00;99.00
41756;DHT22;27435;48.480;9.258;2022-12-19T17:33:04;5.00;99.00
41756;DHT22;27435;48.480;9.258;2022-12-19T17:35:34;5.00;99.00
41756;DHT22;27435;48.480;9.258;2022-12-19T17:38:01;5.00;99.00
41756;DHT22;27435;48.480;9.258;2022-12-19T17:40:30;5.00;99.00
41756;DHT22;27435;48.480;9.258;2022-12-19T17:42:57;5.00;99.00
41756;DHT22;27435;48.480;9.258;2022-12-19T17:45:24;5.00;99.00
41756;DHT22;27435;48.480;9.258;2022-12-19T17:47:51;5.10;99.00
41756;DHT22;27435;48.480;9.258;2022-12-19T17:50:22;5.10;99.00
41756;DHT22;27435;48.480;9.258;2022-12-19T17:52:49;5.10;99.00
41756;DHT22;27435;48.480;9.258;2022-12-19T17:55:22;5.20;99.00
41756;DHT22;27435;48.480;9.258;2022-12-19T17:57:48;5.20;99.00
41756;DHT22;27435;48.480;9.258;2022-12-19T18:00:16;5.30;99.00
41756;DHT22;27435;48.480;9.258;2022-12-19T18:02:43;5.30;99.00
41756;DHT22;27435;48.480;9.258;2022-12-19T18:05:23;5.10;99.00
41756;DHT22;27435;48.480;9.258;2022-12-19T18:07:51;5.00;99.00
41756;DHT22;27435;48.480;9.258;2022-12-19T18:10:23;4.90;99.00
41756;DHT22;27435;48.480;9.258;2022-12-19T18:12:50;4.80;99.00
41756;DHT22;27435;48.480;9.258;2022-12-19T18:15:18;4.70;99.00
41756;DHT22;27435;48.480;9.258;2022-12-19T18:17:44;4.50;99.00
41756;DHT22;27435;48.480;9.258;2022-12-19T18:20:26;4.40;99.00
41756;DHT22;27435;48.480;9.258;2022-12-19T18:22:53;4.40;99.00